createdAt,value
2023-04-16T02:56:35.401Z,14.23
2023-04-16T05:19:46.387Z,7.95
2023-04-16T05:22:31.454Z,8.87
2023-04-16T05:25:04.951Z,8.00
2023-04-16T05:27:49.204Z,7.87
2023-04-16T05:30:26.490Z,8.23
2023-04-16T05:36:07.249Z,8.70
2023-04-16T05:38:48.016Z,9.30
2023-04-16T05:41:23.696Z,9.17
2023-04-16T05:44:07.948Z,9.37
2023-04-16T05:46:56.086Z,9.40
2023-04-16T05:49:37.989Z,9.50
2023-04-16T05:52:19.773Z,9.60
2023-04-16T05:55:05.259Z,9.70
2023-04-16T05:58:35.071Z,9.63
2023-04-16T06:00:53.052Z,9.80
2023-04-16T06:03:34.690Z,10.80
2023-04-16T06:08:56.440Z,10.17
2023-04-16T06:11:31.064Z,11.10
2023-04-16T06:14:17.857Z,11.53
2023-04-16T06:16:57.108Z,10.60
2023-04-16T06:19:55.599Z,11.83
2023-04-16T06:23:06.985Z,12.40
2023-04-16T06:25:46.593Z,10.87
2023-04-16T06:28:28.212Z,10.80
2023-04-16T06:31:12.700Z,11.80
2023-04-16T06:33:56.488Z,11.03
2023-04-16T06:39:30.433Z,11.30
2023-04-16T06:45:47.681Z,11.50
2023-04-16T06:48:29.640Z,11.80
2023-04-16T06:51:30.200Z,12.33
2023-04-16T06:54:02.891Z,12.23
2023-04-16T06:56:51.635Z,12.23
2023-04-16T06:59:33.143Z,12.97
2023-04-16T07:05:33.586Z,12.07
2023-04-16T07:08:17.730Z,12.33
2023-04-16T07:11:05.572Z,12.23
2023-04-16T07:13:45.108Z,12.93
2023-04-16T07:16:26.315Z,11.27
2023-04-16T07:19:17.267Z,11.33
2023-04-16T07:22:11.276Z,11.77
2023-04-16T07:28:36.504Z,10.97
2023-04-16T07:31:20.898Z,10.93
2023-04-16T07:34:03.062Z,10.97
2023-04-16T07:37:00.215Z,9.83
2023-04-16T07:39:39.345Z,10.23
2023-04-16T07:45:33.449Z,10.93
2023-04-16T07:48:17.597Z,10.33
2023-04-16T07:58:06.091Z,10.00
2023-04-16T08:00:53.924Z,10.17
2023-04-16T08:03:35.384Z,9.47
2023-04-16T08:03:48.544Z,9.97
2023-04-16T08:06:19.763Z,8.63
2023-04-16T08:09:09.840Z,10.33
2023-04-16T08:11:52.708Z,9.23
2023-04-16T08:15:12.765Z,9.07
2023-04-16T08:18:25.689Z,8.63
2023-04-16T08:21:18.947Z,8.43
2023-04-16T08:24:36.169Z,7.73
2023-04-16T08:27:22.064Z,8.57
2023-04-16T08:30:02.487Z,8.60
2023-04-16T08:32:32.566Z,9.00
2023-04-16T08:35:05.696Z,8.80
2023-04-16T08:40:56.116Z,8.47
2023-04-16T08:46:55.104Z,8.90
2023-04-16T08:49:28.488Z,8.43
2023-04-16T08:52:43.655Z,8.53
2023-04-16T08:55:33.422Z,9.77
2023-04-16T08:58:19.402Z,8.73
2023-04-16T09:01:09.692Z,9.00
2023-04-16T09:03:41.236Z,10.07
2023-04-16T09:06:18.482Z,9.87
2023-04-16T09:08:48.485Z,10.90
2023-04-16T09:14:17.974Z,9.87
2023-04-16T09:17:08.783Z,10.73
2023-04-16T09:19:38.551Z,10.10
2023-04-16T09:22:35.437Z,9.50
2023-04-16T09:25:05.418Z,9.80
2023-04-16T09:27:38.194Z,10.03
2023-04-16T09:30:25.047Z,10.63
2023-04-16T09:32:58.164Z,10.60
2023-04-16T09:35:27.904Z,10.90
2023-04-16T09:38:11.075Z,10.30
2023-04-16T09:40:57.373Z,11.37
2023-04-16T09:43:52.473Z,10.93
2023-04-16T09:46:36.226Z,11.30
2023-04-16T09:49:28.967Z,11.83
2023-04-16T09:52:20.795Z,11.10
2023-04-16T09:54:56.933Z,11.10
2023-04-16T09:57:36.879Z,11.00
2023-04-16T10:00:35.146Z,11.70
2023-04-16T10:03:16.080Z,11.70
2023-04-16T10:06:01.983Z,11.97
2023-04-16T10:12:04.859Z,12.97
2023-04-16T10:15:08.563Z,11.70
2023-04-16T10:17:44.963Z,12.40
2023-04-16T10:20:29.180Z,12.70
2023-04-16T10:23:23.724Z,12.30
2023-04-16T10:26:07.419Z,12.43
2023-04-16T10:28:54.845Z,12.77
2023-04-16T10:31:31.556Z,12.57
2023-04-16T10:34:12.787Z,12.77
2023-04-16T10:40:24.498Z,13.60
2023-04-16T10:43:17.357Z,12.90
2023-04-16T10:46:02.056Z,13.17
2023-04-16T10:48:49.892Z,13.10
2023-04-16T10:51:43.833Z,13.73
2023-04-16T10:54:51.055Z,12.80
2023-04-16T10:57:37.933Z,13.33
2023-04-16T11:00:49.289Z,13.43
2023-04-16T11:03:41.390Z,13.63
2023-04-16T11:06:47.781Z,13.40
2023-04-16T11:16:19.349Z,13.60
2023-04-16T11:19:11.720Z,12.87
2023-04-16T11:21:49.348Z,14.40
2023-04-16T11:25:12.307Z,14.00
2023-04-16T11:46:59.303Z,14.83
2023-04-16T11:49:59.677Z,13.33
2023-04-16T11:53:10.248Z,13.57
2023-04-16T11:56:01.581Z,13.33
2023-04-16T12:02:39.001Z,13.63
2023-04-16T12:05:31.087Z,13.67
2023-04-16T12:08:09.118Z,12.90
2023-04-16T12:11:14.268Z,12.67
2023-04-16T12:14:03.023Z,13.23
2023-04-16T12:20:25.004Z,13.30
2023-04-16T12:24:01.255Z,13.13
2023-04-16T12:27:16.828Z,12.90
2023-04-16T12:30:44.108Z,13.97
2023-04-16T12:33:25.782Z,13.03
2023-04-16T12:36:05.126Z,13.30
2023-04-16T12:42:09.665Z,13.97
2023-04-16T12:48:49.234Z,12.80
2023-04-16T12:54:59.300Z,15.10
2023-04-16T12:57:35.981Z,14.67
2023-04-16T13:00:16.442Z,15.63
2023-04-16T13:07:09.838Z,14.57
2023-04-16T13:10:32.363Z,14.63
2023-04-16T13:14:33.636Z,15.03
2023-04-16T13:16:39.593Z,16.20
2023-04-16T13:19:29.692Z,15.63
2023-04-16T13:26:06.258Z,15.67
2023-04-16T13:47:28.051Z,15.20
2023-04-16T13:53:10.459Z,16.23
2023-04-16T14:25:51.828Z,17.17
2023-04-16T15:03:53.446Z,19.43
2023-04-16T15:10:55.620Z,18.77
2023-04-16T15:25:33.706Z,19.63
2023-04-16T16:32:44.981Z,17.37
2023-04-16T16:35:29.554Z,17.93
2023-04-16T16:38:10.487Z,18.40
2023-04-16T16:40:47.399Z,17.30
2023-04-16T16:43:20.186Z,18.53
2023-04-16T16:45:51.218Z,17.63
2023-04-16T16:48:19.402Z,18.07
2023-04-16T16:50:47.480Z,17.80
2023-04-16T16:53:17.583Z,18.20
2023-04-16T16:55:49.347Z,18.03
2023-04-16T16:58:30.597Z,17.10
2023-04-16T17:00:59.205Z,17.43
2023-04-16T17:03:27.778Z,18.30
2023-04-16T17:06:00.305Z,18.07
2023-04-16T17:08:42.325Z,16.30
2023-04-16T17:11:14.052Z,16.90
2023-04-16T17:13:53.058Z,17.00
2023-04-16T17:16:31.807Z,16.53
2023-04-16T17:19:12.363Z,17.07
2023-04-16T17:22:09.120Z,16.20
2023-04-16T17:24:57.529Z,15.47
2023-04-16T17:27:39.015Z,16.20
2023-04-16T17:30:14.154Z,17.70
2023-04-16T17:33:09.766Z,18.37
2023-04-16T17:38:42.948Z,17.40
2023-04-16T17:41:23.544Z,17.57
2023-04-16T17:43:54.995Z,18.33
2023-04-16T17:46:33.078Z,17.37
2023-04-16T17:49:13.908Z,20.63
2023-04-16T17:51:48.532Z,18.63
2023-04-16T17:57:47.922Z,17.80
2023-04-16T18:15:26.666Z,18.30
2023-04-16T18:17:28.332Z,18.10
2023-04-16T18:18:00.288Z,17.53
2023-04-16T18:20:31.621Z,17.80
2023-04-16T18:26:40.944Z,18.23
2023-04-16T18:29:10.659Z,19.67
2023-04-16T19:02:46.000Z,16.67
2023-04-16T19:05:35.846Z,17.37
2023-04-16T19:08:34.663Z,17.60
2023-04-16T19:11:08.881Z,17.07
2023-04-16T19:13:46.875Z,17.80
2023-04-16T19:16:40.278Z,17.07
2023-04-16T19:19:32.151Z,16.07
2023-04-16T19:22:03.238Z,16.70
2023-04-16T19:24:34.475Z,16.03
2023-04-16T19:27:04.899Z,14.17
2023-04-16T19:30:03.842Z,15.47
2023-04-16T19:32:41.507Z,15.60
2023-04-16T19:35:32.043Z,16.40
2023-04-16T19:38:02.152Z,17.47
2023-04-16T19:40:33.517Z,16.77
2023-04-16T19:43:09.380Z,16.57
2023-04-16T19:45:46.245Z,16.73
2023-04-16T19:48:17.480Z,16.10
2023-04-16T19:50:55.125Z,16.07
2023-04-16T19:53:37.021Z,15.67
2023-04-16T19:56:37.393Z,15.77
2023-04-16T19:59:13.818Z,15.57
2023-04-16T20:01:42.106Z,16.10
2023-04-16T20:04:25.848Z,15.10
2023-04-16T20:07:21.549Z,17.17
2023-04-16T20:09:59.040Z,17.07
2023-04-16T20:12:47.167Z,15.87
2023-04-16T20:15:19.812Z,16.73
2023-04-16T20:18:20.086Z,16.97
2023-04-16T20:20:49.475Z,16.90
2023-04-16T20:23:30.667Z,16.43
2023-04-16T20:26:12.982Z,16.20
2023-04-16T20:28:49.645Z,16.10
2023-04-16T20:31:23.118Z,16.03
2023-04-16T20:34:00.640Z,15.47
2023-04-16T20:43:54.782Z,14.27
2023-04-16T20:50:50.097Z,16.03
2023-04-16T20:53:39.472Z,15.47
2023-04-16T20:56:59.100Z,16.50
2023-04-16T20:59:39.476Z,16.03
2023-04-16T21:04:26.039Z,15.20
2023-04-16T21:12:10.264Z,16.23
